This is the latest recevied weather packets stored in our database for station/object IZ2XCK-13. If no packets are shown the sender has not sent any weather packets the latest 1 day(s).
| Time | Temp. | Humidity | Pressure | Rain* | Wind** | Luminosity | Snow |
|---|---|---|---|---|---|---|---|
| 1777788336 | 13.89° C | 55% | 1021.1 hPa | - | - | - | - |
| 1777787136 | 13.33° C | 56% | 1021.3 hPa | - | - | - | - |
| 1777785936 | 13.33° C | 57% | 1021.2 hPa | - | - | - | - |
| 1777784735 | 13.33° C | 58% | 1021.4 hPa | - | - | - | - |
| 1777783535 | 13.33° C | 57% | 1021.4 hPa | - | - | - | - |
| 1777782335 | 12.78° C | 59% | 1021.5 hPa | - | - | - | - |
| 1777781134 | 13.33° C | 57% | 1021.5 hPa | - | - | - | - |
| 1777779934 | 13.33° C | 58% | 1021.5 hPa | - | - | - | - |
| 1777778734 | 12.78° C | 57% | 1021.5 hPa | - | - | - | - |
| 1777777534 | 13.33° C | 56% | 1021.6 hPa | - | - | - | - |
| 1777776333 | 13.33° C | 56% | 1021.7 hPa | - | - | - | - |
| 1777775133 | 13.89° C | 55% | 1021.9 hPa | - | - | - | - |
| 1777773933 | 13.33° C | 56% | 1022.1 hPa | - | - | - | - |
| 1777772732 | 13.89° C | 54% | 1022.1 hPa | - | - | - | - |
| 1777771532 | 13.33° C | 56% | 1022.1 hPa | - | - | - | - |
| 1777770331 | 13.89° C | 54% | 1022.3 hPa | - | - | - | - |
| 1777769131 | 13.89° C | 54% | 1022.5 hPa | - | - | - | - |
| 1777767931 | 14.44° C | 53% | 1022.7 hPa | - | - | - | - |
| 1777766731 | 14.44° C | 53% | 1023 hPa | - | - | - | - |
| 1777765530 | 14.44° C | 51% | 1023.2 hPa | - | - | - | - |
| 1777764330 | 14.44° C | 51% | 1023.3 hPa | - | - | - | - |
| 1777763130 | 15° C | 50% | 1023.2 hPa | - | - | - | - |
| 1777761929 | 15° C | 50% | 1023.2 hPa | - | - | - | - |
| 1777760729 | 15.56° C | 47% | 1023.1 hPa | - | - | - | - |
| 1777759529 | 15° C | 48% | 1023.3 hPa | - | - | - | - |
* Rain since midnight (hover to see other rain measurements)
** Current wind speed in m/s (hover to see current wind gust speed)